sensor_id;sensor_type;location;lat;lon;timestamp;P1;durP1;ratioP1;P2;durP2;ratioP2
7213;SDS011;3648;50.614;13.830;2022-12-18T00:00:48;30.77;;;17.63;;
7213;SDS011;3648;50.614;13.830;2022-12-18T00:03:15;30.73;;;16.93;;
7213;SDS011;3648;50.614;13.830;2022-12-18T00:05:48;26.77;;;15.13;;
7213;SDS011;3648;50.614;13.830;2022-12-18T00:08:16;24.60;;;15.50;;
7213;SDS011;3648;50.614;13.830;2022-12-18T00:10:43;28.30;;;16.17;;
7213;SDS011;3648;50.614;13.830;2022-12-18T00:13:13;23.63;;;13.93;;
7213;SDS011;3648;50.614;13.830;2022-12-18T00:15:40;25.47;;;14.83;;
7213;SDS011;3648;50.614;13.830;2022-12-18T00:18:07;28.93;;;16.80;;
7213;SDS011;3648;50.614;13.830;2022-12-18T00:20:35;29.33;;;17.77;;
7213;SDS011;3648;50.614;13.830;2022-12-18T00:23:03;31.07;;;19.30;;
7213;SDS011;3648;50.614;13.830;2022-12-18T00:25:32;29.03;;;18.77;;
7213;SDS011;3648;50.614;13.830;2022-12-18T00:27:59;29.77;;;18.30;;
7213;SDS011;3648;50.614;13.830;2022-12-18T00:30:28;27.00;;;17.10;;
7213;SDS011;3648;50.614;13.830;2022-12-18T00:32:55;28.87;;;16.30;;
7213;SDS011;3648;50.614;13.830;2022-12-18T00:35:22;30.07;;;17.17;;
7213;SDS011;3648;50.614;13.830;2022-12-18T00:37:49;29.77;;;16.27;;
7213;SDS011;3648;50.614;13.830;2022-12-18T00:40:16;27.53;;;16.77;;
7213;SDS011;3648;50.614;13.830;2022-12-18T00:42:43;25.47;;;16.40;;
7213;SDS011;3648;50.614;13.830;2022-12-18T00:45:22;29.43;;;16.40;;
7213;SDS011;3648;50.614;13.830;2022-12-18T00:47:52;26.57;;;16.50;;
7213;SDS011;3648;50.614;13.830;2022-12-18T00:50:19;33.47;;;17.13;;
7213;SDS011;3648;50.614;13.830;2022-12-18T00:52:47;24.83;;;16.30;;
7213;SDS011;3648;50.614;13.830;2022-12-18T00:55:14;32.23;;;18.13;;
7213;SDS011;3648;50.614;13.830;2022-12-18T00:57:42;32.47;;;16.50;;
7213;SDS011;3648;50.614;13.830;2022-12-18T01:00:10;31.27;;;17.00;;
7213;SDS011;3648;50.614;13.830;2022-12-18T01:02:39;30.27;;;17.13;;
7213;SDS011;3648;50.614;13.830;2022-12-18T01:05:08;29.13;;;15.53;;
7213;SDS011;3648;50.614;13.830;2022-12-18T01:07:36;29.30;;;16.73;;
7213;SDS011;3648;50.614;13.830;2022-12-18T01:10:03;31.87;;;18.57;;
7213;SDS011;3648;50.614;13.830;2022-12-18T01:12:32;34.20;;;18.47;;
7213;SDS011;3648;50.614;13.830;2022-12-18T01:14:59;28.40;;;17.00;;
7213;SDS011;3648;50.614;13.830;2022-12-18T01:17:26;32.43;;;17.33;;
7213;SDS011;3648;50.614;13.830;2022-12-18T01:19:53;34.30;;;18.23;;
7213;SDS011;3648;50.614;13.830;2022-12-18T01:22:22;29.80;;;17.47;;
7213;SDS011;3648;50.614;13.830;2022-12-18T01:24:49;34.87;;;17.67;;
7213;SDS011;3648;50.614;13.830;2022-12-18T01:27:16;33.47;;;19.50;;
7213;SDS011;3648;50.614;13.830;2022-12-18T01:29:43;34.63;;;18.83;;
7213;SDS011;3648;50.614;13.830;2022-12-18T01:32:10;35.20;;;18.13;;
7213;SDS011;3648;50.614;13.830;2022-12-18T01:34:37;29.97;;;17.70;;
7213;SDS011;3648;50.614;13.830;2022-12-18T01:37:04;32.63;;;18.20;;
7213;SDS011;3648;50.614;13.830;2022-12-18T01:39:33;27.17;;;16.97;;
7213;SDS011;3648;50.614;13.830;2022-12-18T01:42:01;30.47;;;18.43;;
7213;SDS011;3648;50.614;13.830;2022-12-18T01:44:53;30.33;;;17.03;;
7213;SDS011;3648;50.614;13.830;2022-12-18T01:47:26;33.43;;;17.47;;
7213;SDS011;3648;50.614;13.830;2022-12-18T01:50:01;32.70;;;17.40;;
7213;SDS011;3648;50.614;13.830;2022-12-18T01:52:31;34.37;;;18.80;;
7213;SDS011;3648;50.614;13.830;2022-12-18T01:55:00;30.80;;;17.40;;
7213;SDS011;3648;50.614;13.830;2022-12-18T01:57:30;30.73;;;17.77;;
7213;SDS011;3648;50.614;13.830;2022-12-18T01:59:59;29.77;;;19.03;;
7213;SDS011;3648;50.614;13.830;2022-12-18T02:02:31;29.57;;;18.43;;
7213;SDS011;3648;50.614;13.830;2022-12-18T02:04:58;33.47;;;18.97;;
7213;SDS011;3648;50.614;13.830;2022-12-18T02:07:29;31.70;;;18.20;;
7213;SDS011;3648;50.614;13.830;2022-12-18T02:10:06;29.83;;;18.27;;
7213;SDS011;3648;50.614;13.830;2022-12-18T02:12:42;31.77;;;19.77;;
7213;SDS011;3648;50.614;13.830;2022-12-18T02:15:13;34.80;;;18.73;;
7213;SDS011;3648;50.614;13.830;2022-12-18T02:17:46;37.30;;;19.20;;
7213;SDS011;3648;50.614;13.830;2022-12-18T02:20:20;33.13;;;18.70;;
7213;SDS011;3648;50.614;13.830;2022-12-18T02:22:54;31.90;;;18.13;;
7213;SDS011;3648;50.614;13.830;2022-12-18T02:25:38;37.27;;;19.47;;
7213;SDS011;3648;50.614;13.830;2022-12-18T02:28:15;34.60;;;18.13;;
7213;SDS011;3648;50.614;13.830;2022-12-18T02:30:45;33.27;;;18.40;;
7213;SDS011;3648;50.614;13.830;2022-12-18T02:33:15;31.20;;;17.73;;
7213;SDS011;3648;50.614;13.830;2022-12-18T02:35:43;31.67;;;18.27;;
7213;SDS011;3648;50.614;13.830;2022-12-18T02:38:12;37.80;;;18.27;;
7213;SDS011;3648;50.614;13.830;2022-12-18T02:40:40;37.07;;;17.30;;
7213;SDS011;3648;50.614;13.830;2022-12-18T02:43:09;36.80;;;18.83;;
7213;SDS011;3648;50.614;13.830;2022-12-18T02:45:47;36.07;;;19.43;;
7213;SDS011;3648;50.614;13.830;2022-12-18T02:48:16;34.20;;;18.70;;
7213;SDS011;3648;50.614;13.830;2022-12-18T02:50:45;35.17;;;19.90;;
7213;SDS011;3648;50.614;13.830;2022-12-18T02:53:24;38.37;;;19.63;;
7213;SDS011;3648;50.614;13.830;2022-12-18T02:55:57;37.00;;;20.40;;
7213;SDS011;3648;50.614;13.830;2022-12-18T02:58:30;33.43;;;18.40;;
7213;SDS011;3648;50.614;13.830;2022-12-18T03:01:07;37.50;;;19.33;;
7213;SDS011;3648;50.614;13.830;2022-12-18T03:03:40;33.00;;;20.17;;
7213;SDS011;3648;50.614;13.830;2022-12-18T03:06:12;35.97;;;19.40;;
7213;SDS011;3648;50.614;13.830;2022-12-18T03:08:47;37.50;;;19.37;;
7213;SDS011;3648;50.614;13.830;2022-12-18T03:11:17;32.10;;;18.70;;
7213;SDS011;3648;50.614;13.830;2022-12-18T03:14:05;33.50;;;18.97;;
7213;SDS011;3648;50.614;13.830;2022-12-18T03:16:34;37.43;;;20.17;;
7213;SDS011;3648;50.614;13.830;2022-12-18T03:19:03;37.00;;;20.87;;
7213;SDS011;3648;50.614;13.830;2022-12-18T03:21:36;39.97;;;20.43;;
7213;SDS011;3648;50.614;13.830;2022-12-18T03:24:07;36.57;;;20.83;;
7213;SDS011;3648;50.614;13.830;2022-12-18T03:26:35;37.37;;;20.27;;
7213;SDS011;3648;50.614;13.830;2022-12-18T03:29:06;35.23;;;20.40;;
7213;SDS011;3648;50.614;13.830;2022-12-18T03:31:40;38.07;;;21.60;;
7213;SDS011;3648;50.614;13.830;2022-12-18T03:34:09;34.87;;;21.70;;
7213;SDS011;3648;50.614;13.830;2022-12-18T03:36:39;36.90;;;22.10;;
7213;SDS011;3648;50.614;13.830;2022-12-18T03:39:06;37.40;;;21.37;;
7213;SDS011;3648;50.614;13.830;2022-12-18T03:41:35;37.27;;;21.13;;
7213;SDS011;3648;50.614;13.830;2022-12-18T03:44:08;42.57;;;23.63;;
7213;SDS011;3648;50.614;13.830;2022-12-18T03:46:42;44.57;;;25.27;;
7213;SDS011;3648;50.614;13.830;2022-12-18T03:49:18;39.50;;;23.23;;
7213;SDS011;3648;50.614;13.830;2022-12-18T03:51:52;41.40;;;24.30;;
7213;SDS011;3648;50.614;13.830;2022-12-18T03:54:26;45.70;;;23.53;;
7213;SDS011;3648;50.614;13.830;2022-12-18T03:56:58;35.47;;;21.80;;
7213;SDS011;3648;50.614;13.830;2022-12-18T03:59:29;37.73;;;22.60;;
7213;SDS011;3648;50.614;13.830;2022-12-18T04:01:58;42.07;;;23.83;;
7213;SDS011;3648;50.614;13.830;2022-12-18T04:04:27;42.97;;;24.23;;
7213;SDS011;3648;50.614;13.830;2022-12-18T04:06:56;39.93;;;22.30;;
7213;SDS011;3648;50.614;13.830;2022-12-18T04:09:24;37.70;;;22.53;;
7213;SDS011;3648;50.614;13.830;2022-12-18T04:11:53;38.43;;;22.07;;
7213;SDS011;3648;50.614;13.830;2022-12-18T04:14:20;36.70;;;22.63;;
7213;SDS011;3648;50.614;13.830;2022-12-18T04:16:47;39.33;;;23.23;;
7213;SDS011;3648;50.614;13.830;2022-12-18T04:19:15;43.67;;;23.13;;
7213;SDS011;3648;50.614;13.830;2022-12-18T04:21:43;41.40;;;23.23;;
7213;SDS011;3648;50.614;13.830;2022-12-18T04:24:10;38.97;;;22.43;;
7213;SDS011;3648;50.614;13.830;2022-12-18T04:26:37;35.83;;;21.97;;
7213;SDS011;3648;50.614;13.830;2022-12-18T04:29:04;39.37;;;21.83;;
7213;SDS011;3648;50.614;13.830;2022-12-18T04:31:31;38.10;;;22.73;;
7213;SDS011;3648;50.614;13.830;2022-12-18T04:33:58;39.57;;;22.60;;
7213;SDS011;3648;50.614;13.830;2022-12-18T04:36:27;42.80;;;22.47;;
7213;SDS011;3648;50.614;13.830;2022-12-18T04:38:54;36.10;;;21.40;;
7213;SDS011;3648;50.614;13.830;2022-12-18T04:41:21;35.40;;;22.20;;
7213;SDS011;3648;50.614;13.830;2022-12-18T04:43:48;35.13;;;21.73;;
7213;SDS011;3648;50.614;13.830;2022-12-18T04:46:15;37.63;;;21.47;;
7213;SDS011;3648;50.614;13.830;2022-12-18T04:48:44;40.23;;;22.23;;
7213;SDS011;3648;50.614;13.830;2022-12-18T04:51:12;33.40;;;18.83;;
7213;SDS011;3648;50.614;13.830;2022-12-18T04:53:40;35.80;;;19.80;;
7213;SDS011;3648;50.614;13.830;2022-12-18T04:56:08;46.47;;;24.67;;
7213;SDS011;3648;50.614;13.830;2022-12-18T04:58:37;43.20;;;22.20;;
7213;SDS011;3648;50.614;13.830;2022-12-18T05:01:05;40.47;;;22.97;;
7213;SDS011;3648;50.614;13.830;2022-12-18T05:03:33;38.43;;;22.37;;
7213;SDS011;3648;50.614;13.830;2022-12-18T05:06:01;46.77;;;27.30;;
7213;SDS011;3648;50.614;13.830;2022-12-18T05:08:29;42.40;;;23.33;;
7213;SDS011;3648;50.614;13.830;2022-12-18T05:11:02;38.70;;;23.77;;
7213;SDS011;3648;50.614;13.830;2022-12-18T05:13:30;43.50;;;24.17;;
7213;SDS011;3648;50.614;13.830;2022-12-18T05:15:58;41.33;;;22.43;;
7213;SDS011;3648;50.614;13.830;2022-12-18T05:18:25;40.87;;;23.13;;
7213;SDS011;3648;50.614;13.830;2022-12-18T05:20:52;36.40;;;21.97;;
7213;SDS011;3648;50.614;13.830;2022-12-18T05:23:21;39.80;;;23.50;;
7213;SDS011;3648;50.614;13.830;2022-12-18T05:25:50;42.30;;;24.30;;
7213;SDS011;3648;50.614;13.830;2022-12-18T05:28:20;45.00;;;24.63;;
7213;SDS011;3648;50.614;13.830;2022-12-18T05:30:48;39.57;;;22.27;;
7213;SDS011;3648;50.614;13.830;2022-12-18T05:33:16;51.70;;;28.27;;
7213;SDS011;3648;50.614;13.830;2022-12-18T05:35:43;43.63;;;24.73;;
7213;SDS011;3648;50.614;13.830;2022-12-18T05:38:10;46.27;;;25.23;;
7213;SDS011;3648;50.614;13.830;2022-12-18T05:40:37;41.73;;;22.87;;
7213;SDS011;3648;50.614;13.830;2022-12-18T05:43:08;52.83;;;28.23;;
7213;SDS011;3648;50.614;13.830;2022-12-18T05:45:38;49.30;;;26.90;;
7213;SDS011;3648;50.614;13.830;2022-12-18T05:48:05;39.90;;;24.20;;
7213;SDS011;3648;50.614;13.830;2022-12-18T05:50:33;43.13;;;24.37;;
7213;SDS011;3648;50.614;13.830;2022-12-18T05:53:01;39.53;;;23.80;;
7213;SDS011;3648;50.614;13.830;2022-12-18T05:55:29;46.83;;;24.00;;
7213;SDS011;3648;50.614;13.830;2022-12-18T05:57:59;36.80;;;21.97;;
7213;SDS011;3648;50.614;13.830;2022-12-18T06:00:26;39.20;;;22.50;;
7213;SDS011;3648;50.614;13.830;2022-12-18T06:02:54;43.27;;;26.27;;
7213;SDS011;3648;50.614;13.830;2022-12-18T06:05:21;49.77;;;26.77;;
7213;SDS011;3648;50.614;13.830;2022-12-18T06:07:49;46.30;;;27.00;;
7213;SDS011;3648;50.614;13.830;2022-12-18T06:10:16;45.23;;;26.47;;
7213;SDS011;3648;50.614;13.830;2022-12-18T06:12:43;42.53;;;25.87;;
7213;SDS011;3648;50.614;13.830;2022-12-18T06:15:10;46.40;;;25.30;;
7213;SDS011;3648;50.614;13.830;2022-12-18T06:17:37;53.67;;;30.77;;
7213;SDS011;3648;50.614;13.830;2022-12-18T06:20:07;45.67;;;27.73;;
7213;SDS011;3648;50.614;13.830;2022-12-18T06:22:34;49.77;;;29.77;;
7213;SDS011;3648;50.614;13.830;2022-12-18T06:25:02;65.13;;;35.03;;
7213;SDS011;3648;50.614;13.830;2022-12-18T06:27:29;69.57;;;36.07;;
7213;SDS011;3648;50.614;13.830;2022-12-18T06:29:56;63.07;;;33.87;;
7213;SDS011;3648;50.614;13.830;2022-12-18T06:32:23;49.83;;;28.93;;
7213;SDS011;3648;50.614;13.830;2022-12-18T06:34:51;47.37;;;29.20;;
7213;SDS011;3648;50.614;13.830;2022-12-18T06:37:20;46.27;;;27.50;;
7213;SDS011;3648;50.614;13.830;2022-12-18T06:39:50;68.97;;;37.13;;
7213;SDS011;3648;50.614;13.830;2022-12-18T06:42:17;67.50;;;38.40;;
7213;SDS011;3648;50.614;13.830;2022-12-18T06:44:44;61.60;;;36.27;;
7213;SDS011;3648;50.614;13.830;2022-12-18T06:47:12;74.67;;;40.17;;
7213;SDS011;3648;50.614;13.830;2022-12-18T06:49:39;66.33;;;38.00;;
7213;SDS011;3648;50.614;13.830;2022-12-18T06:52:06;69.60;;;37.60;;
7213;SDS011;3648;50.614;13.830;2022-12-18T06:54:40;47.83;;;30.00;;
7213;SDS011;3648;50.614;13.830;2022-12-18T06:57:07;51.10;;;28.47;;
7213;SDS011;3648;50.614;13.830;2022-12-18T06:59:34;58.67;;;33.00;;
7213;SDS011;3648;50.614;13.830;2022-12-18T07:02:01;66.23;;;33.57;;
7213;SDS011;3648;50.614;13.830;2022-12-18T07:04:28;55.90;;;32.20;;
7213;SDS011;3648;50.614;13.830;2022-12-18T07:06:55;54.40;;;30.57;;
7213;SDS011;3648;50.614;13.830;2022-12-18T07:09:23;68.93;;;36.93;;
7213;SDS011;3648;50.614;13.830;2022-12-18T07:11:51;63.03;;;34.03;;
7213;SDS011;3648;50.614;13.830;2022-12-18T07:14:19;93.03;;;45.27;;
7213;SDS011;3648;50.614;13.830;2022-12-18T07:16:46;236.73;;;102.63;;
7213;SDS011;3648;50.614;13.830;2022-12-18T07:19:13;87.83;;;43.53;;
7213;SDS011;3648;50.614;13.830;2022-12-18T07:21:40;116.13;;;52.90;;
7213;SDS011;3648;50.614;13.830;2022-12-18T07:24:07;149.77;;;60.40;;
7213;SDS011;3648;50.614;13.830;2022-12-18T07:26:34;131.90;;;52.33;;
7213;SDS011;3648;50.614;13.830;2022-12-18T07:29:03;157.83;;;65.90;;
7213;SDS011;3648;50.614;13.830;2022-12-18T07:31:30;263.33;;;96.87;;
7213;SDS011;3648;50.614;13.830;2022-12-18T07:33:57;189.17;;;74.03;;
7213;SDS011;3648;50.614;13.830;2022-12-18T07:36:24;156.27;;;69.40;;
7213;SDS011;3648;50.614;13.830;2022-12-18T07:38:51;104.67;;;51.77;;
7213;SDS011;3648;50.614;13.830;2022-12-18T07:41:19;88.80;;;43.70;;
7213;SDS011;3648;50.614;13.830;2022-12-18T07:43:46;67.00;;;34.63;;
7213;SDS011;3648;50.614;13.830;2022-12-18T07:46:15;67.50;;;34.27;;
7213;SDS011;3648;50.614;13.830;2022-12-18T07:48:44;61.77;;;31.37;;
7213;SDS011;3648;50.614;13.830;2022-12-18T07:51:12;61.47;;;34.03;;
7213;SDS011;3648;50.614;13.830;2022-12-18T07:53:40;48.70;;;27.80;;
7213;SDS011;3648;50.614;13.830;2022-12-18T07:56:08;51.43;;;27.37;;
7213;SDS011;3648;50.614;13.830;2022-12-18T07:58:37;47.40;;;26.10;;
7213;SDS011;3648;50.614;13.830;2022-12-18T08:01:04;43.53;;;25.57;;
7213;SDS011;3648;50.614;13.830;2022-12-18T08:03:35;40.83;;;23.53;;
7213;SDS011;3648;50.614;13.830;2022-12-18T08:06:04;49.13;;;24.50;;
7213;SDS011;3648;50.614;13.830;2022-12-18T08:08:33;315.03;;;160.40;;
7213;SDS011;3648;50.614;13.830;2022-12-18T08:11:00;72.73;;;39.60;;
7213;SDS011;3648;50.614;13.830;2022-12-18T08:13:27;59.07;;;33.90;;
7213;SDS011;3648;50.614;13.830;2022-12-18T08:15:55;61.23;;;34.00;;
7213;SDS011;3648;50.614;13.830;2022-12-18T08:18:23;50.43;;;29.73;;
7213;SDS011;3648;50.614;13.830;2022-12-18T08:20:52;50.13;;;27.37;;
7213;SDS011;3648;50.614;13.830;2022-12-18T08:23:20;55.97;;;28.13;;
7213;SDS011;3648;50.614;13.830;2022-12-18T08:25:47;44.90;;;26.43;;
7213;SDS011;3648;50.614;13.830;2022-12-18T08:28:18;48.93;;;26.03;;
7213;SDS011;3648;50.614;13.830;2022-12-18T08:30:45;40.60;;;23.60;;
7213;SDS011;3648;50.614;13.830;2022-12-18T08:33:12;41.73;;;23.97;;
7213;SDS011;3648;50.614;13.830;2022-12-18T08:35:40;45.83;;;27.27;;
7213;SDS011;3648;50.614;13.830;2022-12-18T08:38:08;62.87;;;31.70;;
7213;SDS011;3648;50.614;13.830;2022-12-18T08:40:35;87.57;;;38.07;;
7213;SDS011;3648;50.614;13.830;2022-12-18T08:43:02;67.70;;;38.03;;
7213;SDS011;3648;50.614;13.830;2022-12-18T08:45:48;72.53;;;41.60;;
7213;SDS011;3648;50.614;13.830;2022-12-18T08:48:15;96.33;;;52.97;;
7213;SDS011;3648;50.614;13.830;2022-12-18T08:50:42;74.33;;;38.33;;
7213;SDS011;3648;50.614;13.830;2022-12-18T08:53:11;72.80;;;37.60;;
7213;SDS011;3648;50.614;13.830;2022-12-18T08:55:40;86.33;;;39.83;;
7213;SDS011;3648;50.614;13.830;2022-12-18T08:58:07;104.03;;;51.27;;
7213;SDS011;3648;50.614;13.830;2022-12-18T09:00:35;86.13;;;39.83;;
7213;SDS011;3648;50.614;13.830;2022-12-18T09:03:02;78.60;;;41.17;;
7213;SDS011;3648;50.614;13.830;2022-12-18T09:05:30;78.87;;;44.07;;
7213;SDS011;3648;50.614;13.830;2022-12-18T09:07:57;76.53;;;43.93;;
7213;SDS011;3648;50.614;13.830;2022-12-18T09:10:26;82.53;;;42.77;;
7213;SDS011;3648;50.614;13.830;2022-12-18T09:12:53;54.57;;;29.60;;
7213;SDS011;3648;50.614;13.830;2022-12-18T09:15:21;76.53;;;46.53;;
7213;SDS011;3648;50.614;13.830;2022-12-18T09:17:49;64.90;;;36.20;;
7213;SDS011;3648;50.614;13.830;2022-12-18T09:20:18;57.83;;;30.77;;
7213;SDS011;3648;50.614;13.830;2022-12-18T09:22:45;47.20;;;28.80;;
7213;SDS011;3648;50.614;13.830;2022-12-18T09:25:12;66.70;;;35.33;;
7213;SDS011;3648;50.614;13.830;2022-12-18T09:27:41;65.03;;;35.27;;
7213;SDS011;3648;50.614;13.830;2022-12-18T09:30:09;69.07;;;35.77;;
7213;SDS011;3648;50.614;13.830;2022-12-18T09:32:36;64.53;;;33.20;;
7213;SDS011;3648;50.614;13.830;2022-12-18T09:35:05;61.37;;;30.17;;
7213;SDS011;3648;50.614;13.830;2022-12-18T09:37:32;57.07;;;30.00;;
7213;SDS011;3648;50.614;13.830;2022-12-18T09:39:59;59.33;;;30.90;;
7213;SDS011;3648;50.614;13.830;2022-12-18T09:42:26;52.00;;;28.37;;
7213;SDS011;3648;50.614;13.830;2022-12-18T09:44:55;50.43;;;26.83;;
7213;SDS011;3648;50.614;13.830;2022-12-18T09:47:25;51.90;;;28.93;;
7213;SDS011;3648;50.614;13.830;2022-12-18T09:49:56;49.23;;;28.57;;
7213;SDS011;3648;50.614;13.830;2022-12-18T09:52:28;57.60;;;29.33;;
7213;SDS011;3648;50.614;13.830;2022-12-18T09:54:59;58.43;;;30.37;;
7213;SDS011;3648;50.614;13.830;2022-12-18T09:57:30;52.43;;;27.00;;
7213;SDS011;3648;50.614;13.830;2022-12-18T10:00:08;47.80;;;26.90;;
7213;SDS011;3648;50.614;13.830;2022-12-18T10:02:42;56.90;;;28.87;;
7213;SDS011;3648;50.614;13.830;2022-12-18T10:05:10;66.07;;;31.60;;
7213;SDS011;3648;50.614;13.830;2022-12-18T10:07:47;55.07;;;26.83;;
7213;SDS011;3648;50.614;13.830;2022-12-18T10:10:23;55.63;;;27.93;;
7213;SDS011;3648;50.614;13.830;2022-12-18T10:12:57;53.03;;;28.83;;
7213;SDS011;3648;50.614;13.830;2022-12-18T10:15:33;48.33;;;29.00;;
7213;SDS011;3648;50.614;13.830;2022-12-18T10:18:10;57.43;;;29.10;;
7213;SDS011;3648;50.614;13.830;2022-12-18T10:20:49;52.23;;;27.57;;
7213;SDS011;3648;50.614;13.830;2022-12-18T10:23:21;61.30;;;30.80;;
7213;SDS011;3648;50.614;13.830;2022-12-18T10:25:53;58.40;;;29.80;;
7213;SDS011;3648;50.614;13.830;2022-12-18T10:28:26;47.57;;;25.80;;
7213;SDS011;3648;50.614;13.830;2022-12-18T10:30:57;53.17;;;28.03;;
7213;SDS011;3648;50.614;13.830;2022-12-18T10:33:27;58.10;;;30.73;;
7213;SDS011;3648;50.614;13.830;2022-12-18T10:35:57;46.40;;;27.47;;
7213;SDS011;3648;50.614;13.830;2022-12-18T10:38:25;69.20;;;31.77;;
7213;SDS011;3648;50.614;13.830;2022-12-18T10:40:55;52.70;;;28.50;;
7213;SDS011;3648;50.614;13.830;2022-12-18T10:43:24;51.30;;;27.17;;
7213;SDS011;3648;50.614;13.830;2022-12-18T10:46:02;48.40;;;26.97;;
7213;SDS011;3648;50.614;13.830;2022-12-18T10:48:35;52.80;;;27.33;;
7213;SDS011;3648;50.614;13.830;2022-12-18T10:51:19;65.53;;;31.63;;
7213;SDS011;3648;50.614;13.830;2022-12-18T10:53:51;47.87;;;26.70;;
7213;SDS011;3648;50.614;13.830;2022-12-18T10:56:20;48.23;;;27.80;;
7213;SDS011;3648;50.614;13.830;2022-12-18T10:58:55;49.80;;;28.40;;
7213;SDS011;3648;50.614;13.830;2022-12-18T11:01:25;72.33;;;36.77;;
7213;SDS011;3648;50.614;13.830;2022-12-18T11:04:00;69.50;;;34.00;;
7213;SDS011;3648;50.614;13.830;2022-12-18T11:06:33;64.80;;;33.23;;
7213;SDS011;3648;50.614;13.830;2022-12-18T11:09:18;59.63;;;30.93;;
7213;SDS011;3648;50.614;13.830;2022-12-18T11:11:47;61.20;;;29.50;;
7213;SDS011;3648;50.614;13.830;2022-12-18T11:14:17;61.53;;;29.33;;
7213;SDS011;3648;50.614;13.830;2022-12-18T11:16:51;62.93;;;30.80;;
7213;SDS011;3648;50.614;13.830;2022-12-18T11:19:20;54.07;;;28.87;;
7213;SDS011;3648;50.614;13.830;2022-12-18T11:21:52;43.37;;;23.30;;
7213;SDS011;3648;50.614;13.830;2022-12-18T11:24:20;54.80;;;29.07;;
7213;SDS011;3648;50.614;13.830;2022-12-18T11:26:52;41.47;;;22.43;;
7213;SDS011;3648;50.614;13.830;2022-12-18T11:29:22;43.30;;;23.67;;
7213;SDS011;3648;50.614;13.830;2022-12-18T11:31:56;39.87;;;22.30;;
7213;SDS011;3648;50.614;13.830;2022-12-18T11:35:03;41.63;;;20.57;;
7213;SDS011;3648;50.614;13.830;2022-12-18T11:37:40;32.07;;;18.53;;
7213;SDS011;3648;50.614;13.830;2022-12-18T11:40:13;31.70;;;17.90;;
7213;SDS011;3648;50.614;13.830;2022-12-18T11:42:45;37.23;;;19.30;;
7213;SDS011;3648;50.614;13.830;2022-12-18T11:45:27;29.87;;;17.33;;
7213;SDS011;3648;50.614;13.830;2022-12-18T11:47:58;30.90;;;17.73;;
7213;SDS011;3648;50.614;13.830;2022-12-18T11:50:32;32.90;;;17.47;;
7213;SDS011;3648;50.614;13.830;2022-12-18T11:53:09;31.97;;;18.87;;
7213;SDS011;3648;50.614;13.830;2022-12-18T11:55:40;38.50;;;19.80;;
7213;SDS011;3648;50.614;13.830;2022-12-18T11:58:15;37.17;;;19.27;;
7213;SDS011;3648;50.614;13.830;2022-12-18T12:00:53;36.93;;;19.67;;
7213;SDS011;3648;50.614;13.830;2022-12-18T12:03:47;41.17;;;22.27;;
7213;SDS011;3648;50.614;13.830;2022-12-18T12:06:43;44.77;;;23.33;;
7213;SDS011;3648;50.614;13.830;2022-12-18T12:09:17;47.20;;;25.13;;
7213;SDS011;3648;50.614;13.830;2022-12-18T12:11:51;38.80;;;20.93;;
7213;SDS011;3648;50.614;13.830;2022-12-18T12:14:30;45.73;;;24.10;;
7213;SDS011;3648;50.614;13.830;2022-12-18T12:17:09;47.90;;;24.83;;
7213;SDS011;3648;50.614;13.830;2022-12-18T12:19:48;47.87;;;23.83;;
7213;SDS011;3648;50.614;13.830;2022-12-18T12:22:24;40.60;;;22.30;;
7213;SDS011;3648;50.614;13.830;2022-12-18T12:25:00;46.27;;;26.57;;
7213;SDS011;3648;50.614;13.830;2022-12-18T12:27:40;44.00;;;24.50;;
7213;SDS011;3648;50.614;13.830;2022-12-18T12:30:18;46.73;;;25.53;;
7213;SDS011;3648;50.614;13.830;2022-12-18T12:32:57;43.23;;;22.20;;
7213;SDS011;3648;50.614;13.830;2022-12-18T12:35:42;42.37;;;21.90;;
7213;SDS011;3648;50.614;13.830;2022-12-18T12:38:14;44.93;;;21.27;;
7213;SDS011;3648;50.614;13.830;2022-12-18T12:40:46;43.07;;;21.63;;
7213;SDS011;3648;50.614;13.830;2022-12-18T12:43:24;49.40;;;24.43;;
7213;SDS011;3648;50.614;13.830;2022-12-18T12:45:57;44.60;;;24.20;;
7213;SDS011;3648;50.614;13.830;2022-12-18T12:48:35;39.63;;;21.40;;
7213;SDS011;3648;50.614;13.830;2022-12-18T12:51:10;42.40;;;21.87;;
7213;SDS011;3648;50.614;13.830;2022-12-18T12:53:41;45.37;;;22.50;;
7213;SDS011;3648;50.614;13.830;2022-12-18T12:56:09;34.53;;;20.00;;
7213;SDS011;3648;50.614;13.830;2022-12-18T12:58:43;43.93;;;20.90;;
7213;SDS011;3648;50.614;13.830;2022-12-18T13:01:22;37.13;;;21.27;;
7213;SDS011;3648;50.614;13.830;2022-12-18T13:03:58;40.20;;;21.87;;
7213;SDS011;3648;50.614;13.830;2022-12-18T13:06:42;36.90;;;21.00;;
7213;SDS011;3648;50.614;13.830;2022-12-18T13:09:13;37.23;;;20.90;;
7213;SDS011;3648;50.614;13.830;2022-12-18T13:11:40;38.20;;;20.50;;
7213;SDS011;3648;50.614;13.830;2022-12-18T13:14:27;36.50;;;19.77;;
7213;SDS011;3648;50.614;13.830;2022-12-18T13:17:16;36.90;;;21.37;;
7213;SDS011;3648;50.614;13.830;2022-12-18T13:20:02;40.63;;;22.00;;
7213;SDS011;3648;50.614;13.830;2022-12-18T13:22:35;35.63;;;18.50;;
7213;SDS011;3648;50.614;13.830;2022-12-18T13:28:00;33.97;;;17.93;;
7213;SDS011;3648;50.614;13.830;2022-12-18T13:30:43;41.57;;;21.97;;
7213;SDS011;3648;50.614;13.830;2022-12-18T13:36:13;66.13;;;32.13;;
7213;SDS011;3648;50.614;13.830;2022-12-18T13:38:43;40.10;;;23.33;;
7213;SDS011;3648;50.614;13.830;2022-12-18T13:41:24;38.00;;;21.90;;
7213;SDS011;3648;50.614;13.830;2022-12-18T13:43:53;40.10;;;22.17;;
7213;SDS011;3648;50.614;13.830;2022-12-18T13:46:24;72.10;;;33.03;;
7213;SDS011;3648;50.614;13.830;2022-12-18T13:48:55;49.33;;;26.03;;
7213;SDS011;3648;50.614;13.830;2022-12-18T13:51:26;39.70;;;21.70;;
7213;SDS011;3648;50.614;13.830;2022-12-18T13:53:56;40.77;;;22.57;;
7213;SDS011;3648;50.614;13.830;2022-12-18T13:56:26;35.87;;;20.07;;
7213;SDS011;3648;50.614;13.830;2022-12-18T13:59:11;41.73;;;22.20;;
7213;SDS011;3648;50.614;13.830;2022-12-18T14:01:43;35.00;;;20.87;;
7213;SDS011;3648;50.614;13.830;2022-12-18T14:04:12;35.17;;;20.67;;
7213;SDS011;3648;50.614;13.830;2022-12-18T14:06:44;37.97;;;20.13;;
7213;SDS011;3648;50.614;13.830;2022-12-18T14:09:14;34.70;;;19.80;;
7213;SDS011;3648;50.614;13.830;2022-12-18T14:11:48;40.80;;;21.40;;
7213;SDS011;3648;50.614;13.830;2022-12-18T14:14:16;37.50;;;20.47;;
7213;SDS011;3648;50.614;13.830;2022-12-18T14:16:45;32.20;;;19.47;;
7213;SDS011;3648;50.614;13.830;2022-12-18T14:19:13;37.13;;;19.43;;
7213;SDS011;3648;50.614;13.830;2022-12-18T14:21:45;41.23;;;21.30;;
7213;SDS011;3648;50.614;13.830;2022-12-18T14:24:15;35.33;;;19.77;;
7213;SDS011;3648;50.614;13.830;2022-12-18T14:26:44;37.27;;;20.23;;
7213;SDS011;3648;50.614;13.830;2022-12-18T14:29:19;36.40;;;19.80;;
7213;SDS011;3648;50.614;13.830;2022-12-18T14:34:30;34.63;;;18.73;;
7213;SDS011;3648;50.614;13.830;2022-12-18T14:36:59;40.80;;;20.20;;
7213;SDS011;3648;50.614;13.830;2022-12-18T14:39:28;33.60;;;19.20;;
7213;SDS011;3648;50.614;13.830;2022-12-18T14:41:55;41.17;;;21.47;;
7213;SDS011;3648;50.614;13.830;2022-12-18T14:44:22;37.03;;;20.37;;
7213;SDS011;3648;50.614;13.830;2022-12-18T14:46:49;37.17;;;21.03;;
7213;SDS011;3648;50.614;13.830;2022-12-18T14:49:18;38.27;;;20.23;;
7213;SDS011;3648;50.614;13.830;2022-12-18T14:51:50;34.70;;;19.50;;
7213;SDS011;3648;50.614;13.830;2022-12-18T14:54:19;40.77;;;21.90;;
7213;SDS011;3648;50.614;13.830;2022-12-18T14:56:51;63.53;;;31.93;;
7213;SDS011;3648;50.614;13.830;2022-12-18T14:59:27;53.83;;;26.17;;
7213;SDS011;3648;50.614;13.830;2022-12-18T15:02:00;33.17;;;18.63;;